SBNT/NAT METAR and TAF weather

Enter ICAO airport designator
Station Type Date Time Source
SBNT METAR 2021/07/28 21:00 UTC NOAA

SBNT 282100Z 13010KT 9999 FEW020 26/23 Q1013


Station Type Date Time Source
SBNT Decoded METAR 2021/07/28 21:00 UTC NOAA

Natal Aeroporto, Brazil (SBNT) 05-55S 035-15W 49M
Jul 28, 2021 - 05:00 PM EDT / 2021.07.28 2100 UTC
Wind: from the SE (130 degrees) at 12 MPH (10 KT):0
Visibility: greater than 7 mile(s):0
Sky conditions: mostly clear
Temperature: 78 F (26 C)
Dew Point: 73 F (23 C)
Relative Humidity: 83%
Pressure (altimeter): 29.91 in. Hg (1013 hPa)
ob: SBNT 282100Z 13010KT 9999 FEW020 26/23 Q1013
cycle: 21

Station Type Date Time Source
SBNT TAF 2021/07/28 18:03 UTC NOAA

TAF TAF SBNT 281530Z 2818/2906 13015KT 9999 SCT025 FEW030TCU TX29/2818Z TN23/2906Z
TEMPO 2818/2821 8000 BKN020 FEW025TCU
BECMG 2821/2823 13010KT SCT020
BECMG 2902/2904 18007KT
RMK PGS

Example: see airport list